Time;durP1;ratioP1;P1;durP2;ratioP2;P2;SDS_P1;SDS_P2;PMS_P1;PMS_P2;Temp;Humidity;BMP_temperature;BMP_pressure;BME280_temperature;BME280_humidity;BME280_pressure;Samples;Min_cycle;Max_cycle;Signal;HPM_P1;HPM_P2
2021/10/07 00:01:08;;;;;;;3.60;2.10;;;;;;;;;;4974269;28;20452;-73
2021/10/07 00:03:34;;;;;;;1.83;1.73;;;;;;;;;;4973653;28;20432;-72
2021/10/07 00:06:00;;;;;;;2.17;1.47;;;;;;;;;;4974598;28;20485;-73
2021/10/07 00:08:26;;;;;;;3.33;1.60;;;;;;;;;;4973445;28;20472;-72
2021/10/07 00:10:52;;;;;;;2.27;1.30;;;;;;;;;;4974438;28;20437;-72
2021/10/07 00:16:22;;;;;;;1.20;1.10;;;;;;;;;;4974296;28;20428;-72
2021/10/07 00:18:50;;;;;;;3.50;1.50;;;;;;;;;;4974033;28;20438;-72
2021/10/07 00:21:18;;;;;;;1.70;1.53;;;;;;;;;;4974120;28;20819;-72
2021/10/07 00:23:57;;;;;;;2.30;1.60;;;;;;;;;;4974257;28;20500;-72
2021/10/07 00:26:23;;;;;;;1.77;1.53;;;;;;;;;;4974138;28;20477;-72
2021/10/07 00:28:49;;;;;;;2.93;1.37;;;;;;;;;;4974028;28;20424;-72
2021/10/07 00:31:22;;;;;;;1.77;1.67;;;;;;;;;;4974237;28;20432;-72
2021/10/07 00:39:27;;;;;;;2.60;1.70;;;;;;;;;;4974184;28;20413;-72
2021/10/07 00:41:54;;;;;;;3.33;1.60;;;;;;;;;;4973838;28;20504;-72
2021/10/07 00:44:21;;;;;;;2.10;1.60;;;;;;;;;;4974132;28;20416;-72
2021/10/07 00:46:47;;;;;;;3.30;1.60;;;;;;;;;;4973997;28;20996;-72
2021/10/07 00:49:13;;;;;;;3.80;1.73;;;;;;;;;;4973893;28;20428;-72
2021/10/07 00:51:39;;;;;;;1.47;1.37;;;;;;;;;;4973964;28;20901;-71
2021/10/07 00:54:05;;;;;;;2.53;1.53;;;;;;;;;;4973925;28;20464;-71
2021/10/07 01:02:20;;;;;;;3.20;1.57;;;;;;;;;;4973656;28;20927;-74
2021/10/07 01:04:46;;;;;;;1.37;1.27;;;;;;;;;;4973740;28;20506;-72
2021/10/07 01:07:12;;;;;;;2.10;1.50;;;;;;;;;;4973635;28;20436;-72
2021/10/07 01:09:39;;;;;;;4.77;1.40;;;;;;;;;;4973676;28;20940;-72
2021/10/07 01:12:06;;;;;;;1.50;1.40;;;;;;;;;;4973673;28;20525;-73
2021/10/07 01:14:36;;;;;;;2.23;1.60;;;;;;;;;;4973697;28;20414;-72
2021/10/07 01:17:03;;;;;;;2.53;1.63;;;;;;;;;;4975852;28;20421;-71
2021/10/07 01:19:29;;;;;;;1.90;1.13;;;;;;;;;;4977200;28;20420;-72
2021/10/07 01:21:57;;;;;;;2.33;1.50;;;;;;;;;;4977521;28;20567;-72
2021/10/07 01:24:23;;;;;;;3.30;1.10;;;;;;;;;;4977188;28;20424;-72
2021/10/07 01:26:49;;;;;;;2.53;1.60;;;;;;;;;;4976940;28;20487;-73
2021/10/07 01:29:15;;;;;;;3.03;1.47;;;;;;;;;;4977197;28;20424;-72
2021/10/07 01:31:41;;;;;;;2.40;1.30;;;;;;;;;;4977161;28;20417;-72
2021/10/07 01:34:07;;;;;;;3.10;1.67;;;;;;;;;;4976867;28;20477;-73
2021/10/07 01:36:33;;;;;;;2.20;1.40;;;;;;;;;;4976517;28;20417;-73
2021/10/07 01:38:59;;;;;;;1.63;1.33;;;;;;;;;;4977016;28;20426;-74
2021/10/07 01:41:25;;;;;;;1.90;1.30;;;;;;;;;;4977160;28;20448;-73
2021/10/07 01:46:54;;;;;;;2.10;1.13;;;;;;;;;;4976846;28;20599;-72
2021/10/07 01:49:21;;;;;;;1.17;1.07;;;;;;;;;;4976976;28;20425;-73
2021/10/07 01:51:47;;;;;;;1.60;1.40;;;;;;;;;;4976891;28;20441;-72
2021/10/07 01:54:13;;;;;;;3.10;1.57;;;;;;;;;;4976923;28;20456;-72
2021/10/07 01:56:39;;;;;;;4.57;1.40;;;;;;;;;;4976704;28;20759;-72
2021/10/07 02:02:09;;;;;;;1.80;1.40;;;;;;;;;;4976678;28;20413;-73
2021/10/07 02:04:35;;;;;;;2.43;1.57;;;;;;;;;;4976656;28;20416;-73
2021/10/07 02:07:01;;;;;;;1.37;1.27;;;;;;;;;;4976623;28;20465;-73
2021/10/07 02:09:27;;;;;;;1.47;1.37;;;;;;;;;;4976697;28;20421;-72
2021/10/07 02:11:53;;;;;;;2.00;1.50;;;;;;;;;;4976543;28;20433;-73
2021/10/07 02:17:23;;;;;;;1.50;1.40;;;;;;;;;;4976319;28;20424;-73
2021/10/07 02:19:49;;;;;;;1.70;1.60;;;;;;;;;;4975152;28;20912;-73
2021/10/07 02:22:15;;;;;;;1.57;1.47;;;;;;;;;;4976137;28;20436;-72
2021/10/07 02:24:41;;;;;;;1.23;1.03;;;;;;;;;;4974876;28;20901;-72
2021/10/07 02:27:07;;;;;;;1.80;1.50;;;;;;;;;;4975750;28;20429;-72
2021/10/07 02:29:33;;;;;;;2.53;1.30;;;;;;;;;;4976255;28;20888;-74
2021/10/07 02:31:58;;;;;;;1.50;1.40;;;;;;;;;;4976288;28;20465;-73
2021/10/07 02:34:24;;;;;;;2.23;1.33;;;;;;;;;;4976220;28;20449;-72
2021/10/07 02:36:50;;;;;;;1.97;1.70;;;;;;;;;;4976159;28;20434;-72
2021/10/07 02:39:16;;;;;;;3.50;1.70;;;;;;;;;;4976076;28;20429;-73
2021/10/07 02:41:42;;;;;;;1.40;1.10;;;;;;;;;;4976053;28;20780;-73
2021/10/07 02:47:12;;;;;;;5.77;2.00;;;;;;;;;;4975899;28;20449;-73
2021/10/07 02:49:38;;;;;;;1.40;1.30;;;;;;;;;;4975918;28;20417;-73
2021/10/07 02:52:04;;;;;;;1.73;1.63;;;;;;;;;;4976028;28;20529;-72
2021/10/07 02:54:30;;;;;;;5.73;2.50;;;;;;;;;;4975596;28;20855;-72
2021/10/07 02:56:56;;;;;;;3.33;1.50;;;;;;;;;;4975640;28;20433;-72
2021/10/07 03:02:25;;;;;;;5.97;1.97;;;;;;;;;;4975565;28;20420;-73
2021/10/07 03:04:52;;;;;;;1.63;1.40;;;;;;;;;;4975673;28;20433;-73
2021/10/07 03:07:21;;;;;;;1.60;1.50;;;;;;;;;;4975543;28;20422;-72
2021/10/07 03:09:47;;;;;;;1.60;1.50;;;;;;;;;;4975558;28;20813;-73
2021/10/07 03:12:13;;;;;;;3.13;1.80;;;;;;;;;;4975585;28;20761;-72
2021/10/07 03:17:43;;;;;;;1.67;1.57;;;;;;;;;;4975298;28;20421;-72
2021/10/07 03:20:09;;;;;;;1.70;1.60;;;;;;;;;;4975345;28;20422;-72
2021/10/07 03:22:35;;;;;;;1.67;1.57;;;;;;;;;;4975252;28;20417;-71
2021/10/07 03:25:01;;;;;;;3.20;1.93;;;;;;;;;;4975170;28;20457;-73
2021/10/07 03:27:27;;;;;;;2.50;1.47;;;;;;;;;;4974997;28;20518;-73
2021/10/07 03:32:57;;;;;;;3.30;2.17;;;;;;;;;;4975027;28;20561;-73
2021/10/07 03:35:23;;;;;;;3.17;2.03;;;;;;;;;;4974921;28;20405;-73
2021/10/07 03:37:49;;;;;;;1.30;1.23;;;;;;;;;;4975073;28;20422;-73
2021/10/07 03:40:15;;;;;;;1.70;1.50;;;;;;;;;;4974238;28;20511;-72
2021/10/07 03:42:40;;;;;;;3.80;1.40;;;;;;;;;;4974728;28;20405;-73
2021/10/07 03:45:07;;;;;;;2.57;1.70;;;;;;;;;;4974808;28;20454;-72
2021/10/07 03:47:33;;;;;;;1.93;1.40;;;;;;;;;;4974771;28;20459;-73
2021/10/07 03:49:59;;;;;;;2.30;1.33;;;;;;;;;;4974784;28;20774;-73
2021/10/07 03:52:26;;;;;;;4.63;1.83;;;;;;;;;;4975082;28;20469;-73
2021/10/07 03:54:52;;;;;;;1.67;1.57;;;;;;;;;;4974597;28;20628;-73
2021/10/07 03:57:18;;;;;;;2.93;1.50;;;;;;;;;;4973224;28;20423;-73
2021/10/07 04:02:47;;;;;;;1.60;1.50;;;;;;;;;;4974311;28;20423;-72
2021/10/07 04:05:13;;;;;;;1.60;1.40;;;;;;;;;;4974480;28;20568;-72
2021/10/07 04:07:40;;;;;;;2.27;1.87;;;;;;;;;;4974450;28;20473;-72
2021/10/07 04:10:06;;;;;;;1.90;1.80;;;;;;;;;;4974446;28;20978;-73
2021/10/07 04:12:32;;;;;;;2.17;1.77;;;;;;;;;;4974572;28;20460;-72
2021/10/07 04:18:02;;;;;;;2.10;1.60;;;;;;;;;;4974305;28;20533;-72
2021/10/07 04:20:28;;;;;;;3.40;2.30;;;;;;;;;;4974374;28;20496;-72
2021/10/07 04:22:54;;;;;;;2.70;1.80;;;;;;;;;;4974120;28;20453;-72
2021/10/07 04:25:20;;;;;;;1.80;1.70;;;;;;;;;;4974271;28;20486;-72
2021/10/07 04:27:46;;;;;;;2.70;1.90;;;;;;;;;;4974470;28;20823;-72
2021/10/07 04:33:15;;;;;;;2.03;1.83;;;;;;;;;;4971367;28;20787;-72
2021/10/07 04:35:42;;;;;;;7.53;1.60;;;;;;;;;;4974238;28;20418;-73
2021/10/07 04:38:08;;;;;;;1.60;1.50;;;;;;;;;;4974156;28;20410;-74
2021/10/07 04:40:35;;;;;;;5.97;2.50;;;;;;;;;;4974148;28;20440;-74
2021/10/07 04:43:01;;;;;;;3.00;2.27;;;;;;;;;;4974219;28;20414;-73
2021/10/07 04:48:30;;;;;;;4.20;2.00;;;;;;;;;;4974014;28;20504;-73
2021/10/07 04:50:57;;;;;;;1.70;1.60;;;;;;;;;;4976314;28;20842;-73
2021/10/07 04:53:23;;;;;;;2.33;2.13;;;;;;;;;;4978276;28;20417;-73
2021/10/07 04:55:54;;;;;;;4.80;2.90;;;;;;;;;;4977664;28;20474;-73
2021/10/07 04:58:21;;;;;;;2.10;2.00;;;;;;;;;;4977784;28;20414;-73
2021/10/07 05:00:47;;;;;;;2.03;1.83;;;;;;;;;;4977889;28;20418;-73
2021/10/07 05:03:13;;;;;;;2.47;2.27;;;;;;;;;;4977717;28;20919;-73
2021/10/07 05:05:40;;;;;;;4.00;3.30;;;;;;;;;;4977672;28;20477;-71
2021/10/07 05:08:06;;;;;;;3.13;2.33;;;;;;;;;;4978000;28;20863;-73
2021/10/07 05:10:32;;;;;;;2.83;2.63;;;;;;;;;;4977703;28;20418;-74
2021/10/07 05:12:58;;;;;;;2.73;2.07;;;;;;;;;;4977576;28;20405;-73
2021/10/07 05:18:28;;;;;;;3.57;2.20;;;;;;;;;;4976319;28;20497;-71
2021/10/07 05:20:54;;;;;;;2.80;2.20;;;;;;;;;;4977034;28;20409;-72
2021/10/07 05:23:20;;;;;;;2.90;2.40;;;;;;;;;;4977064;28;20425;-71
2021/10/07 05:25:47;;;;;;;2.47;2.27;;;;;;;;;;4977483;28;20481;-72
2021/10/07 05:28:13;;;;;;;3.30;2.13;;;;;;;;;;4977005;28;20954;-71
2021/10/07 05:33:42;;;;;;;3.17;2.57;;;;;;;;;;4976912;28;20762;-73
2021/10/07 05:36:08;;;;;;;4.03;2.50;;;;;;;;;;4977262;28;20409;-72
2021/10/07 05:38:34;;;;;;;3.47;2.03;;;;;;;;;;4977301;28;20509;-73
2021/10/07 05:41:00;;;;;;;2.67;2.47;;;;;;;;;;4977212;28;20409;-73
2021/10/07 05:43:27;;;;;;;3.00;2.30;;;;;;;;;;4976412;28;20417;-73
2021/10/07 05:48:56;;;;;;;2.33;2.17;;;;;;;;;;4976855;28;20625;-72
2021/10/07 05:51:22;;;;;;;3.40;2.70;;;;;;;;;;4976954;28;20409;-72
2021/10/07 05:53:48;;;;;;;3.70;2.70;;;;;;;;;;4975090;28;20769;-73
2021/10/07 05:56:14;;;;;;;2.83;2.60;;;;;;;;;;4976465;28;20466;-72
2021/10/07 05:58:40;;;;;;;3.67;2.47;;;;;;;;;;4976611;28;20828;-73
2021/10/07 06:04:10;;;;;;;3.83;2.60;;;;;;;;;;4976447;28;20464;-72
2021/10/07 06:06:36;;;;;;;3.00;2.80;;;;;;;;;;4976684;28;20512;-73
2021/10/07 06:09:02;;;;;;;3.23;2.93;;;;;;;;;;4977055;28;20460;-73
2021/10/07 06:11:28;;;;;;;5.50;3.77;;;;;;;;;;4976723;28;20430;-73
2021/10/07 06:13:54;;;;;;;6.60;3.63;;;;;;;;;;4976416;28;20514;-73
2021/10/07 06:16:20;;;;;;;7.03;2.77;;;;;;;;;;4976489;28;20525;-73
2021/10/07 06:18:48;;;;;;;2.90;2.47;;;;;;;;;;4976428;28;20509;-73
2021/10/07 06:21:14;;;;;;;3.97;2.43;;;;;;;;;;4976406;28;20550;-72
2021/10/07 06:23:42;;;;;;;2.40;2.20;;;;;;;;;;4976174;28;20512;-72
2021/10/07 06:26:09;;;;;;;5.63;2.67;;;;;;;;;;4976269;28;20824;-73
2021/10/07 06:28:35;;;;;;;3.50;2.30;;;;;;;;;;4974726;28;20450;-73
2021/10/07 06:34:05;;;;;;;2.83;2.53;;;;;;;;;;4975842;28;20472;-72
2021/10/07 06:36:31;;;;;;;3.27;2.30;;;;;;;;;;4975949;28;20425;-72
2021/10/07 06:38:57;;;;;;;4.17;3.03;;;;;;;;;;4975894;28;20445;-72
2021/10/07 06:41:23;;;;;;;3.00;2.70;;;;;;;;;;4975772;28;20530;-73
2021/10/07 06:43:49;;;;;;;3.10;2.80;;;;;;;;;;4975834;28;20750;-74
2021/10/07 06:49:19;;;;;;;6.27;3.07;;;;;;;;;;4975186;28;20946;-73
2021/10/07 06:51:45;;;;;;;3.13;2.83;;;;;;;;;;4975467;28;20402;-72
2021/10/07 06:54:11;;;;;;;4.80;3.20;;;;;;;;;;4975349;28;20941;-72
2021/10/07 06:56:37;;;;;;;3.33;3.03;;;;;;;;;;4974063;28;20569;-72
2021/10/07 06:59:04;;;;;;;3.63;3.20;;;;;;;;;;4975248;28;20489;-73
2021/10/07 07:04:34;;;;;;;3.90;2.90;;;;;;;;;;4974912;28;20919;-72
2021/10/07 07:07:00;;;;;;;3.90;3.20;;;;;;;;;;4975409;28;20474;-71
2021/10/07 07:09:26;;;;;;;3.50;3.20;;;;;;;;;;4975569;28;20478;-72
2021/10/07 07:11:52;;;;;;;3.23;2.93;;;;;;;;;;4972178;28;20422;-72
2021/10/07 07:14:18;;;;;;;4.60;3.07;;;;;;;;;;4974984;28;20772;-73
2021/10/07 07:19:48;;;;;;;3.03;2.80;;;;;;;;;;4975341;28;20513;-72
2021/10/07 07:22:16;;;;;;;5.60;3.00;;;;;;;;;;4975338;28;20403;-72
2021/10/07 07:24:42;;;;;;;4.80;3.80;;;;;;;;;;4975065;28;20507;-71
2021/10/07 07:27:08;;;;;;;6.87;4.50;;;;;;;;;;4974611;28;20473;-69
2021/10/07 07:29:34;;;;;;;4.43;4.00;;;;;;;;;;4975053;28;20414;-72
2021/10/07 07:32:00;;;;;;;2.87;2.60;;;;;;;;;;4975158;28;20414;-72
2021/10/07 07:34:27;;;;;;;4.80;3.80;;;;;;;;;;4975140;28;20421;-74
2021/10/07 07:36:53;;;;;;;3.63;3.33;;;;;;;;;;4975259;28;20454;-74
2021/10/07 07:39:19;;;;;;;4.00;3.70;;;;;;;;;;4974533;28;20825;-74
2021/10/07 07:41:45;;;;;;;5.67;3.70;;;;;;;;;;4974650;28;20443;-73
2021/10/07 07:44:11;;;;;;;8.07;4.87;;;;;;;;;;4972261;28;20431;-73
2021/10/07 07:49:41;;;;;;;7.57;4.70;;;;;;;;;;4973616;28;20421;-74
2021/10/07 07:52:07;;;;;;;7.93;4.80;;;;;;;;;;4973551;28;20453;-74
2021/10/07 07:54:33;;;;;;;5.63;4.33;;;;;;;;;;4973344;28;20438;-74
2021/10/07 07:56:59;;;;;;;5.17;4.70;;;;;;;;;;4973558;28;20433;-74
2021/10/07 07:59:25;;;;;;;5.20;4.70;;;;;;;;;;4972283;28;20444;-74
2021/10/07 08:04:55;;;;;;;5.23;4.40;;;;;;;;;;4973354;28;20502;-73
2021/10/07 08:07:21;;;;;;;8.70;5.10;;;;;;;;;;4973394;28;20517;-72
2021/10/07 08:09:47;;;;;;;5.80;5.30;;;;;;;;;;4973470;28;20415;-72
2021/10/07 08:12:14;;;;;;;11.00;5.40;;;;;;;;;;4971960;28;20845;-71
2021/10/07 08:14:43;;;;;;;5.10;4.60;;;;;;;;;;4973399;28;20410;-72
2021/10/07 08:20:13;;;;;;;6.10;5.50;;;;;;;;;;4973313;28;20413;-72
2021/10/07 08:22:40;;;;;;;4.90;4.50;;;;;;;;;;4973266;28;20777;-72
2021/10/07 08:25:07;;;;;;;5.73;5.20;;;;;;;;;;4972565;28;20462;-73
2021/10/07 08:27:33;;;;;;;10.43;5.27;;;;;;;;;;4973011;28;20419;-73
2021/10/07 08:29:59;;;;;;;10.60;5.33;;;;;;;;;;4973286;28;20466;-74
2021/10/07 08:35:28;;;;;;;7.90;5.80;;;;;;;;;;4972003;28;20409;-73
2021/10/07 08:37:54;;;;;;;6.90;5.90;;;;;;;;;;4973174;28;20865;-73
2021/10/07 08:40:20;;;;;;;7.17;6.47;;;;;;;;;;4973233;28;20415;-72
2021/10/07 08:42:46;;;;;;;8.50;5.93;;;;;;;;;;4972979;28;20441;-73
2021/10/07 08:45:13;;;;;;;8.23;7.40;;;;;;;;;;4973049;28;20458;-73
2021/10/07 08:50:42;;;;;;;15.03;6.70;;;;;;;;;;4972931;28;20513;-73
2021/10/07 08:53:08;;;;;;;6.67;5.50;;;;;;;;;;4973071;28;20411;-74
2021/10/07 08:55:34;;;;;;;5.97;5.47;;;;;;;;;;4973086;28;20592;-73
2021/10/07 08:58:00;;;;;;;6.40;5.43;;;;;;;;;;4972599;28;20551;-73
2021/10/07 09:00:26;;;;;;;8.87;6.30;;;;;;;;;;4972980;28;20427;-73
2021/10/07 09:02:52;;;;;;;7.97;6.07;;;;;;;;;;4972785;28;20426;-73
2021/10/07 09:05:23;;;;;;;10.33;5.83;;;;;;;;;;4972751;28;20458;-73
2021/10/07 09:07:58;;;;;;;7.90;6.23;;;;;;;;;;4973292;28;20426;-72
2021/10/07 09:10:35;;;;;;;7.77;6.03;;;;;;;;;;4972998;28;20426;-73
2021/10/07 09:13:04;;;;;;;8.37;6.50;;;;;;;;;;4972132;28;20418;-72
2021/10/07 09:15:31;;;;;;;10.17;5.93;;;;;;;;;;4972789;28;20518;-72
2021/10/07 09:21:00;;;;;;;7.60;6.73;;;;;;;;;;4972681;28;20920;-73
2021/10/07 09:23:30;;;;;;;10.23;7.30;;;;;;;;;;4972803;28;20418;-73
2021/10/07 09:26:01;;;;;;;9.93;6.27;;;;;;;;;;4972691;28;20560;-74
2021/10/07 09:28:29;;;;;;;7.17;6.20;;;;;;;;;;4972847;28;20813;-74
2021/10/07 09:30:59;;;;;;;7.23;6.53;;;;;;;;;;4973044;28;20801;-73
2021/10/07 09:33:26;;;;;;;5.57;5.10;;;;;;;;;;4970978;28;20430;-73
2021/10/07 09:36:08;;;;;;;7.10;5.93;;;;;;;;;;4972815;28;20526;-73
2021/10/07 09:38:34;;;;;;;10.20;7.30;;;;;;;;;;4975766;28;20451;-74
2021/10/07 09:41:09;;;;;;;6.93;6.23;;;;;;;;;;4975934;28;20418;-73
2021/10/07 09:43:45;;;;;;;6.97;6.27;;;;;;;;;;4976019;28;20461;-72
2021/10/07 09:46:11;;;;;;;6.30;5.70;;;;;;;;;;4975549;28;20470;-73
2021/10/07 09:48:41;;;;;;;5.40;4.90;;;;;;;;;;4975761;28;20517;-73
2021/10/07 09:51:14;;;;;;;6.77;6.17;;;;;;;;;;4974530;28;20485;-73
2021/10/07 09:53:43;;;;;;;10.23;5.93;;;;;;;;;;4975801;28;20421;-74
2021/10/07 09:56:23;;;;;;;9.90;5.77;;;;;;;;;;4975582;28;20489;-74
2021/10/07 09:58:49;;;;;;;7.57;6.87;;;;;;;;;;4975544;28;20743;-75
2021/10/07 10:01:15;;;;;;;11.63;5.40;;;;;;;;;;4975738;28;20430;-75
2021/10/07 10:03:41;;;;;;;14.37;6.10;;;;;;;;;;4975648;28;20411;-74
2021/10/07 10:06:07;;;;;;;6.90;6.20;;;;;;;;;;4975738;28;20480;-74
2021/10/07 10:08:33;;;;;;;6.90;6.20;;;;;;;;;;4975735;28;20415;-75
2021/10/07 10:10:59;;;;;;;10.00;6.13;;;;;;;;;;4975870;28;20969;-74
2021/10/07 10:13:25;;;;;;;7.30;6.70;;;;;;;;;;4975597;28;20451;-74
2021/10/07 10:15:52;;;;;;;8.17;7.33;;;;;;;;;;4975072;28;20430;-75
2021/10/07 10:21:23;;;;;;;8.27;7.47;;;;;;;;;;4975431;28;20418;-73
2021/10/07 10:23:49;;;;;;;7.37;6.77;;;;;;;;;;4975180;28;20450;-73
2021/10/07 10:26:15;;;;;;;9.97;7.20;;;;;;;;;;4975389;28;20477;-74
2021/10/07 10:28:42;;;;;;;8.20;7.20;;;;;;;;;;4974044;28;20438;-74
2021/10/07 10:37:01;;;;;;;8.40;6.83;;;;;;;;;;4975986;28;20397;-73
2021/10/07 10:39:37;;;;;;;7.83;7.10;;;;;;;;;;4975877;28;20469;-73
2021/10/07 10:42:03;;;;;;;8.17;7.47;;;;;;;;;;4975841;28;20489;-74
2021/10/07 10:44:29;;;;;;;9.30;7.90;;;;;;;;;;4975688;28;20995;-73
2021/10/07 10:47:15;;;;;;;9.13;8.33;;;;;;;;;;4975663;28;20489;-73
2021/10/07 10:49:49;;;;;;;8.70;7.80;;;;;;;;;;4975504;28;20613;-74
2021/10/07 10:52:17;;;;;;;8.27;7.10;;;;;;;;;;4975678;28;20786;-73
2021/10/07 10:54:44;;;;;;;9.03;8.17;;;;;;;;;;4975533;28;20548;-72
2021/10/07 10:57:10;;;;;;;11.07;7.37;;;;;;;;;;4975092;28;20522;-74
2021/10/07 10:59:39;;;;;;;8.53;7.67;;;;;;;;;;4975427;28;20913;-73
2021/10/07 11:02:17;;;;;;;9.93;6.63;;;;;;;;;;4975513;28;20469;-74
2021/10/07 11:04:47;;;;;;;9.43;7.67;;;;;;;;;;4975355;28;20437;-74
2021/10/07 11:07:17;;;;;;;9.93;6.97;;;;;;;;;;4975504;28;20481;-74
2021/10/07 11:10:04;;;;;;;8.23;7.30;;;;;;;;;;4975583;28;20407;-73
2021/10/07 11:12:32;;;;;;;7.27;6.37;;;;;;;;;;4975798;28;20520;-71
2021/10/07 11:14:58;;;;;;;11.50;7.30;;;;;;;;;;4975296;28;20414;-72
2021/10/07 11:17:27;;;;;;;8.13;6.93;;;;;;;;;;4975010;28;20460;-72
2021/10/07 11:19:53;;;;;;;6.90;6.20;;;;;;;;;;4974131;28;20425;-73
2021/10/07 11:22:19;;;;;;;6.73;6.20;;;;;;;;;;4974206;28;20517;-74
2021/10/07 11:24:53;;;;;;;7.53;6.80;;;;;;;;;;4973962;28;20430;-75
2021/10/07 11:27:36;;;;;;;8.60;7.83;;;;;;;;;;4973639;28;20932;-73
2021/10/07 11:30:04;;;;;;;7.47;6.50;;;;;;;;;;4973894;28;20493;-74
2021/10/07 11:32:31;;;;;;;7.37;6.47;;;;;;;;;;4973895;28;20423;-73
2021/10/07 11:34:58;;;;;;;7.70;6.90;;;;;;;;;;4973877;28;20881;-74
2021/10/07 11:37:24;;;;;;;7.00;6.30;;;;;;;;;;4974048;28;20980;-73
2021/10/07 11:39:50;;;;;;;5.43;4.93;;;;;;;;;;4973943;28;20509;-73
2021/10/07 11:42:35;;;;;;;7.70;4.90;;;;;;;;;;4973870;28;20964;-73
2021/10/07 11:45:01;;;;;;;9.30;5.40;;;;;;;;;;4973818;28;20411;-72
2021/10/07 11:47:31;;;;;;;5.80;5.30;;;;;;;;;;4973818;28;20780;-72
2021/10/07 11:50:12;;;;;;;4.87;4.47;;;;;;;;;;4973832;28;20432;-72
2021/10/07 11:52:38;;;;;;;7.17;4.43;;;;;;;;;;4974177;28;20835;-72
2021/10/07 11:55:05;;;;;;;7.60;4.77;;;;;;;;;;4973767;28;20470;-72
2021/10/07 11:57:31;;;;;;;6.00;5.50;;;;;;;;;;4972334;28;20453;-73
2021/10/07 11:59:57;;;;;;;5.47;4.67;;;;;;;;;;4972990;28;20422;-73
2021/10/07 12:02:23;;;;;;;7.40;4.43;;;;;;;;;;4973639;28;20431;-73
2021/10/07 12:04:49;;;;;;;5.73;4.40;;;;;;;;;;4973575;28;20891;-73
2021/10/07 12:07:15;;;;;;;6.17;5.57;;;;;;;;;;4973692;28;20561;-72
2021/10/07 12:09:41;;;;;;;4.20;3.87;;;;;;;;;;4973848;28;20419;-73
2021/10/07 12:12:07;;;;;;;5.70;4.47;;;;;;;;;;4973517;28;20433;-73
2021/10/07 12:14:33;;;;;;;4.57;4.10;;;;;;;;;;4973572;28;20901;-74
2021/10/07 12:22:48;;;;;;;5.23;3.20;;;;;;;;;;4973518;28;20410;-74
2021/10/07 12:25:17;;;;;;;4.53;4.00;;;;;;;;;;4973282;28;20465;-74
2021/10/07 12:27:45;;;;;;;4.87;4.37;;;;;;;;;;4973285;28;20469;-73
2021/10/07 12:30:11;;;;;;;3.70;3.50;;;;;;;;;;4973272;28;20442;-73
2021/10/07 12:32:37;;;;;;;7.13;3.83;;;;;;;;;;4973337;28;20426;-74
2021/10/07 12:35:03;;;;;;;4.30;3.90;;;;;;;;;;4973287;28;20399;-73
2021/10/07 12:37:29;;;;;;;4.57;4.17;;;;;;;;;;4973129;28;20426;-75
2021/10/07 12:39:59;;;;;;;4.30;3.90;;;;;;;;;;4973669;28;20414;-73
2021/10/07 12:42:26;;;;;;;4.03;3.60;;;;;;;;;;4973207;28;20494;-73
2021/10/07 12:44:59;;;;;;;4.97;4.03;;;;;;;;;;4973236;28;20425;-72
2021/10/07 12:47:28;;;;;;;4.90;4.20;;;;;;;;;;4973246;28;20438;-72
2021/10/07 12:49:58;;;;;;;5.07;3.60;;;;;;;;;;4973401;28;20507;-73
2021/10/07 12:52:30;;;;;;;4.03;3.73;;;;;;;;;;4973190;28;20406;-74
2021/10/07 12:55:08;;;;;;;3.20;2.93;;;;;;;;;;4972835;28;20482;-73
2021/10/07 12:57:39;;;;;;;3.80;3.10;;;;;;;;;;4973138;28;20457;-73
2021/10/07 13:00:07;;;;;;;3.40;3.20;;;;;;;;;;4973394;28;20419;-73
2021/10/07 13:02:33;;;;;;;2.93;2.73;;;;;;;;;;4973030;28;20491;-72
2021/10/07 13:05:18;;;;;;;2.67;2.47;;;;;;;;;;4973613;28;20418;-74
2021/10/07 13:07:48;;;;;;;2.10;1.90;;;;;;;;;;4973584;28;20473;-73
2021/10/07 13:10:14;;;;;;;3.80;2.47;;;;;;;;;;4973703;28;20874;-73
2021/10/07 13:12:40;;;;;;;2.80;2.23;;;;;;;;;;4976404;28;20418;-73
2021/10/07 13:15:07;;;;;;;3.53;2.90;;;;;;;;;;4976821;28;20429;-73
2021/10/07 13:17:33;;;;;;;2.77;2.57;;;;;;;;;;4976731;28;20497;-77
2021/10/07 13:19:59;;;;;;;3.73;2.83;;;;;;;;;;4976807;28;20445;-71
2021/10/07 13:22:25;;;;;;;3.30;3.00;;;;;;;;;;4976824;28;20516;-73
2021/10/07 13:24:51;;;;;;;3.83;3.50;;;;;;;;;;4976893;28;20414;-73
2021/10/07 13:27:22;;;;;;;4.47;3.00;;;;;;;;;;4975094;28;21073;-73
2021/10/07 13:29:48;;;;;;;3.53;2.57;;;;;;;;;;4976369;28;20930;-73
2021/10/07 13:32:17;;;;;;;3.10;2.60;;;;;;;;;;4976388;28;20411;-73
2021/10/07 13:37:50;;;;;;;4.27;2.70;;;;;;;;;;4976394;28;20413;-73
2021/10/07 13:40:17;;;;;;;4.20;3.80;;;;;;;;;;4975172;28;20426;-72
2021/10/07 13:42:43;;;;;;;4.00;2.23;;;;;;;;;;4976073;28;20418;-73
2021/10/07 13:45:10;;;;;;;3.83;3.00;;;;;;;;;;4974882;28;20441;-73
2021/10/07 13:47:36;;;;;;;5.00;4.13;;;;;;;;;;4976314;28;20437;-73
2021/10/07 13:53:05;;;;;;;5.27;4.13;;;;;;;;;;4976098;28;20777;-72
2021/10/07 13:55:32;;;;;;;6.13;3.93;;;;;;;;;;4975859;28;20466;-73
2021/10/07 13:57:58;;;;;;;4.87;4.40;;;;;;;;;;4976029;28;20422;-73
2021/10/07 14:00:25;;;;;;;5.53;4.97;;;;;;;;;;4976307;28;20423;-73
2021/10/07 14:08:40;;;;;;;4.13;3.60;;;;;;;;;;4975884;28;20498;-73
2021/10/07 14:11:07;;;;;;;10.80;4.40;;;;;;;;;;4975784;28;20414;-73
2021/10/07 14:13:34;;;;;;;3.90;3.60;;;;;;;;;;4975669;28;20879;-73
2021/10/07 14:16:00;;;;;;;5.00;4.50;;;;;;;;;;4974412;28;20913;-73
2021/10/07 14:18:27;;;;;;;5.17;4.20;;;;;;;;;;4975484;28;20485;-72
2021/10/07 14:20:53;;;;;;;4.53;4.13;;;;;;;;;;4975627;28;20449;-73
2021/10/07 14:23:19;;;;;;;6.47;4.80;;;;;;;;;;4974822;28;20419;-73
2021/10/07 14:25:45;;;;;;;8.33;4.17;;;;;;;;;;4975516;28;20483;-73
2021/10/07 14:28:11;;;;;;;6.03;3.20;;;;;;;;;;4973972;28;20434;-73
2021/10/07 14:30:37;;;;;;;8.97;3.23;;;;;;;;;;4975454;28;20431;-73
2021/10/07 14:33:04;;;;;;;6.33;3.00;;;;;;;;;;4975562;28;20419;-73
2021/10/07 14:35:30;;;;;;;4.70;2.67;;;;;;;;;;4975283;28;20505;-73
2021/10/07 14:37:56;;;;;;;3.07;2.83;;;;;;;;;;4975292;28;20796;-73
2021/10/07 14:40:24;;;;;;;4.77;2.90;;;;;;;;;;4975130;28;20411;-74
2021/10/07 14:42:50;;;;;;;3.40;2.70;;;;;;;;;;4975130;28;20454;-73
2021/10/07 14:45:17;;;;;;;5.23;2.57;;;;;;;;;;4975060;28;20889;-73
2021/10/07 14:47:43;;;;;;;3.10;2.80;;;;;;;;;;4974977;28;20785;-74
2021/10/07 14:53:12;;;;;;;3.60;3.00;;;;;;;;;;4974955;28;20810;-73
2021/10/07 14:55:39;;;;;;;3.73;2.63;;;;;;;;;;4974627;28;20991;-73
2021/10/07 14:58:06;;;;;;;4.00;3.60;;;;;;;;;;4974973;28;20425;-73
2021/10/07 15:00:32;;;;;;;3.50;3.17;;;;;;;;;;4975129;28;20419;-73
2021/10/07 15:02:58;;;;;;;3.00;2.70;;;;;;;;;;4974647;28;20465;-73
2021/10/07 15:08:28;;;;;;;2.97;2.77;;;;;;;;;;4974486;28;20632;-72
2021/10/07 15:10:53;;;;;;;2.63;2.10;;;;;;;;;;4974578;28;20506;-73
2021/10/07 15:13:19;;;;;;;3.70;2.13;;;;;;;;;;4974382;28;20490;-72
2021/10/07 15:15:45;;;;;;;2.00;1.83;;;;;;;;;;4974407;28;20593;-72
2021/10/07 15:18:13;;;;;;;4.40;2.23;;;;;;;;;;4974367;28;20428;-73
2021/10/07 15:23:43;;;;;;;1.63;1.53;;;;;;;;;;4974249;28;20493;-73
2021/10/07 15:26:09;;;;;;;2.03;1.73;;;;;;;;;;4974248;28;20954;-73
2021/10/07 15:28:38;;;;;;;2.10;1.90;;;;;;;;;;4974155;28;20411;-73
2021/10/07 15:31:04;;;;;;;2.73;1.83;;;;;;;;;;4974322;28;20419;-73
2021/10/07 15:33:30;;;;;;;2.13;1.93;;;;;;;;;;4974209;28;20743;-73
2021/10/07 15:35:56;;;;;;;2.40;2.20;;;;;;;;;;4973431;28;20427;-73
2021/10/07 15:38:22;;;;;;;2.57;2.23;;;;;;;;;;4974441;28;20417;-73
2021/10/07 15:40:48;;;;;;;2.90;2.53;;;;;;;;;;4974097;28;20943;-74
2021/10/07 15:43:18;;;;;;;2.63;2.40;;;;;;;;;;4973967;28;20425;-73
2021/10/07 15:45:44;;;;;;;3.53;2.23;;;;;;;;;;4973941;28;20977;-72
2021/10/07 15:48:09;;;;;;;2.23;2.10;;;;;;;;;;4974140;28;20481;-73
2021/10/07 15:53:40;;;;;;;2.60;2.30;;;;;;;;;;4972881;28;20512;-74
2021/10/07 15:56:06;;;;;;;3.03;2.40;;;;;;;;;;4973749;28;21015;-73
2021/10/07 15:58:32;;;;;;;7.07;2.40;;;;;;;;;;4973160;28;20781;-74
2021/10/07 16:00:58;;;;;;;2.83;2.63;;;;;;;;;;4973298;28;20407;-74
2021/10/07 16:03:24;;;;;;;5.10;3.00;;;;;;;;;;4973956;28;20530;-74
2021/10/07 16:08:54;;;;;;;3.50;3.30;;;;;;;;;;4973567;28;20436;-74
2021/10/07 16:11:21;;;;;;;2.73;2.53;;;;;;;;;;4973465;28;20506;-74
2021/10/07 16:13:47;;;;;;;5.47;3.07;;;;;;;;;;4973056;28;20395;-72
2021/10/07 16:16:13;;;;;;;4.27;2.90;;;;;;;;;;4973508;28;20406;-74
2021/10/07 16:18:40;;;;;;;4.70;2.70;;;;;;;;;;4973378;28;20406;-75
2021/10/07 16:24:09;;;;;;;2.37;2.13;;;;;;;;;;4973365;28;20469;-74
2021/10/07 16:26:35;;;;;;;2.57;2.37;;;;;;;;;;4973366;28;20478;-72
2021/10/07 16:29:03;;;;;;;3.47;2.87;;;;;;;;;;4973128;28;20961;-74
2021/10/07 16:31:29;;;;;;;6.60;2.70;;;;;;;;;;4973720;28;20415;-74
2021/10/07 16:33:55;;;;;;;2.40;2.20;;;;;;;;;;4973479;28;20461;-73
2021/10/07 16:39:25;;;;;;;2.87;2.10;;;;;;;;;;4973121;28;20433;-73
2021/10/07 16:41:51;;;;;;;2.50;2.30;;;;;;;;;;4973201;28;20407;-74
2021/10/07 16:44:17;;;;;;;5.07;2.00;;;;;;;;;;4973130;28;20525;-73
2021/10/07 16:46:43;;;;;;;2.70;2.50;;;;;;;;;;4975025;28;20580;-73
2021/10/07 16:49:09;;;;;;;3.73;2.40;;;;;;;;;;4976850;28;20419;-73
2021/10/07 16:51:35;;;;;;;12.17;5.10;;;;;;;;;;4976997;28;20437;-73
2021/10/07 16:54:03;;;;;;;5.53;2.63;;;;;;;;;;4976823;28;20458;-73
2021/10/07 16:56:29;;;;;;;6.40;2.23;;;;;;;;;;4977535;28;20530;-74
2021/10/07 16:58:55;;;;;;;1.90;1.80;;;;;;;;;;4974084;28;20427;-73
2021/10/07 17:01:21;;;;;;;2.43;2.23;;;;;;;;;;4977061;28;20518;-73